Time;durP1;ratioP1;P1;durP2;ratioP2;P2;SDS_P1;SDS_P2;PMS_P1;PMS_P2;Temp;Humidity;BMP_temperature;BMP_pressure;BME280_temperature;BME280_humidity;BME280_pressure;Samples;Min_cycle;Max_cycle;Signal;HPM_P1;HPM_P2
2023/03/05 00:01:53;;;;;;;57.80;25.10;;;4.90;56.00;;;-0.08;90.81;95748.22;4949360;28;20033;-49
2023/03/05 00:04:28;;;;;;;57.38;23.85;;;5.00;56.00;;;-0.05;90.89;95741.78;4964615;28;20038;-48
2023/03/05 00:06:54;;;;;;;60.45;24.42;;;5.00;56.10;;;-0.03;90.78;95745.03;4953816;28;20037;-49
2023/03/05 00:09:23;;;;;;;58.25;24.92;;;5.00;56.00;;;-0.02;91.10;95741.41;4954866;28;20022;-51
2023/03/05 00:11:49;;;;;;;55.33;23.48;;;5.00;56.00;;;0.00;90.71;95744.66;4959128;28;20033;-48
2023/03/05 00:14:15;;;;;;;61.20;24.60;;;5.00;56.00;;;0.03;90.27;95740.81;4971128;28;20034;-52
2023/03/05 00:16:44;;;;;;;63.20;27.48;;;5.10;56.00;;;0.04;90.92;95740.63;4970819;28;20440;-49
2023/03/05 00:19:16;;;;;;;58.72;26.73;;;5.10;56.00;;;0.04;90.52;95735.41;4971003;28;20034;-49
2023/03/05 00:21:42;;;;;;;63.87;24.50;;;5.10;56.00;;;0.06;90.54;95736.00;4953602;28;20026;-49
2023/03/05 00:24:17;;;;;;;56.60;26.33;;;5.10;56.00;;;0.05;90.55;95747.47;4961824;28;20022;-48
2023/03/05 00:26:45;;;;;;;61.25;27.27;;;5.10;56.00;;;-0.01;90.55;95743.00;4971141;28;20034;-49
2023/03/05 00:29:29;;;;;;;59.63;27.05;;;5.20;56.10;;;0.03;90.09;95738.19;4958995;28;20054;-49
2023/03/05 00:32:03;;;;;;;58.47;24.98;;;5.10;56.00;;;0.04;90.01;95732.78;4951204;28;20037;-49
2023/03/05 00:34:36;;;;;;;56.00;26.48;;;5.10;56.00;;;0.01;89.84;95735.78;4975355;28;20030;-49
2023/03/05 00:37:07;;;;;;;53.38;25.13;;;5.10;56.00;;;-0.04;90.11;95736.34;4952625;28;20084;-49
2023/03/05 00:39:33;;;;;;;58.70;25.42;;;5.10;56.00;;;0.01;89.93;95732.34;4952070;28;20022;-52
2023/03/05 00:42:03;;;;;;;60.83;26.65;;;5.20;56.10;;;-0.08;89.95;95732.50;4967089;28;20080;-50
2023/03/05 00:44:35;;;;;;;63.58;26.27;;;5.10;56.00;;;-0.05;89.90;95737.38;4984156;28;20033;-52
2023/03/05 00:47:04;;;;;;;58.45;25.08;;;5.20;56.10;;;-0.04;90.09;95738.16;4963358;28;20034;-48
2023/03/05 00:49:33;;;;;;;55.42;24.63;;;5.10;56.00;;;-0.02;89.67;95734.34;4965078;28;20080;-48
2023/03/05 00:52:01;;;;;;;60.10;26.27;;;5.10;56.10;;;-0.02;89.63;95723.88;4958928;28;20105;-51
2023/03/05 00:54:27;;;;;;;56.25;25.10;;;5.10;56.00;;;0.03;89.44;95719.84;4952448;28;20027;-49
2023/03/05 00:56:53;;;;;;;63.22;25.08;;;5.20;56.10;;;0.03;89.68;95715.41;4963888;28;20038;-49
2023/03/05 00:59:22;;;;;;;51.53;24.60;;;5.20;56.10;;;0.05;89.26;95721.28;4962788;28;20134;-49
2023/03/05 01:01:47;;;;;;;56.80;24.83;;;5.20;56.10;;;0.06;89.13;95717.66;4950511;28;20482;-53
2023/03/05 01:04:16;;;;;;;55.95;25.90;;;5.20;56.10;;;0.12;88.99;95710.81;4964090;28;20034;-49
2023/03/05 01:06:45;;;;;;;57.47;25.17;;;5.20;56.10;;;0.10;88.60;95713.66;4967197;28;20416;-49
2023/03/05 01:09:16;;;;;;;59.97;26.10;;;5.20;56.10;;;0.11;88.89;95702.16;4959112;28;20057;-49
2023/03/05 01:11:51;;;;;;;51.55;23.42;;;5.20;56.10;;;0.11;88.48;95707.41;4967882;28;20061;-53
2023/03/05 01:14:19;;;;;;;50.45;23.38;;;5.20;56.10;;;0.07;88.39;95710.63;4961492;28;20461;-49
2023/03/05 01:16:49;;;;;;;62.75;25.38;;;5.20;56.10;;;0.06;87.69;95699.31;4958421;28;20404;-50
2023/03/05 01:19:21;;;;;;;53.17;24.30;;;5.20;56.10;;;0.06;88.34;95699.31;4970013;28;20030;-51
2023/03/05 01:21:47;;;;;;;53.13;23.17;;;5.20;56.10;;;0.01;87.70;95690.44;4954295;28;20019;-54
2023/03/05 01:24:13;;;;;;;57.58;24.15;;;5.20;56.00;;;-0.06;88.15;95693.06;4961603;28;20763;-53
2023/03/05 01:26:38;;;;;;;61.30;25.05;;;5.20;56.00;;;-0.03;88.21;95680.38;4986029;28;20049;-50
2023/03/05 01:29:04;;;;;;;64.10;26.25;;;5.20;56.00;;;0.03;87.99;95685.81;4957579;28;20125;-50
2023/03/05 01:31:30;;;;;;;52.22;23.50;;;5.20;56.00;;;0.07;87.97;95682.63;4964047;28;20367;-49
2023/03/05 01:33:59;;;;;;;56.03;24.20;;;5.20;56.00;;;0.10;88.54;95681.41;4959808;28;20050;-53
2023/03/05 01:36:29;;;;;;;58.22;25.35;;;5.20;56.10;;;0.10;88.01;95679.59;4963286;28;20509;-53
2023/03/05 01:38:54;;;;;;;55.13;25.40;;;5.20;56.10;;;0.08;88.25;95673.75;4962628;28;20062;-53
2023/03/05 01:41:21;;;;;;;52.80;24.20;;;5.20;56.10;;;0.06;87.63;95669.69;4950868;28;20066;-53
2023/03/05 01:43:53;;;;;;;53.80;24.02;;;5.20;56.10;;;0.03;87.84;95664.84;4945353;28;20034;-51
2023/03/05 01:46:37;;;;;;;55.47;24.60;;;5.20;56.10;;;0.03;87.84;95662.22;4949492;28;20389;-53
2023/03/05 01:49:26;;;;;;;51.20;23.77;;;5.20;56.10;;;0.08;87.33;95659.84;4952986;28;20030;-53
2023/03/05 01:52:30;;;;;;;50.78;21.60;;;5.20;56.10;;;0.04;87.70;95669.09;4963997;28;20136;-48
2023/03/05 01:55:01;;;;;;;;;;;5.20;56.00;;;0.10;87.27;95661.28;4959812;28;20068;-54
2023/03/05 01:57:48;;;;;;;51.03;23.92;;;5.20;55.90;;;0.09;87.30;95658.81;4955986;28;19944;-54
2023/03/05 02:00:45;;;;;;;49.47;21.65;;;5.20;56.00;;;0.12;86.77;95659.25;4962312;28;20037;-52
2023/03/05 02:03:15;;;;;;;52.30;22.83;;;5.20;56.00;;;0.12;87.32;95650.56;4946711;28;20532;-51
2023/03/05 02:05:50;;;;;;;52.25;23.00;;;5.20;56.00;;;0.17;87.37;95650.81;4929505;28;20050;-50
2023/03/05 02:08:21;;;;;;;52.75;22.13;;;5.20;56.00;;;0.13;87.38;95645.16;4970585;28;20029;-51
2023/03/05 02:10:55;;;;;;;56.72;23.17;;;5.20;56.00;;;0.13;87.77;95639.91;4961854;28;20085;-52
2023/03/05 02:13:26;;;;;;;50.95;23.90;;;5.20;56.00;;;0.11;87.77;95633.25;4964079;28;20257;-51
2023/03/05 02:15:57;;;;;;;53.08;22.73;;;5.20;56.00;;;0.11;86.92;95636.69;4946646;28;20034;-53
2023/03/05 02:18:27;;;;;;;58.85;24.33;;;5.20;56.00;;;0.09;87.77;95630.81;4978419;28;20034;-54
2023/03/05 02:20:56;;;;;;;63.95;26.08;;;5.20;56.00;;;0.09;87.70;95640.50;4949166;29;20362;-51
2023/03/05 02:23:29;;;;;;;55.65;23.85;;;5.20;56.00;;;0.10;87.50;95632.44;4952257;28;20030;-53
2023/03/05 02:25:55;;;;;;;49.17;22.92;;;5.20;56.00;;;0.04;87.28;95628.00;4949636;29;20054;-51
2023/03/05 02:28:41;;;;;;;60.28;24.60;;;5.30;56.00;;;-0.04;87.88;95625.56;4961297;28;20026;-50
2023/03/05 02:31:28;;;;;;;54.28;22.73;;;5.20;56.10;;;0.03;87.76;95622.94;4953881;28;20030;-50
2023/03/05 02:34:06;;;;;;;52.88;24.65;;;5.20;56.10;;;0.09;87.79;95625.56;4960117;28;20022;-54
2023/03/05 02:36:32;;;;;;;58.00;23.80;;;5.20;56.10;;;0.06;87.59;95622.56;4962334;28;20030;-56
2023/03/05 02:39:04;;;;;;;51.95;23.45;;;5.20;56.10;;;0.07;87.30;95621.56;4962165;28;20033;-49
2023/03/05 02:41:33;;;;;;;55.27;22.97;;;5.20;56.10;;;0.11;87.73;95617.53;4939497;28;20056;-51
2023/03/05 02:44:09;;;;;;;57.65;24.75;;;5.20;56.10;;;0.11;87.35;95617.53;4939916;28;20789;-51
2023/03/05 02:46:35;;;;;;;50.35;21.75;;;5.20;56.10;;;0.13;87.40;95613.72;4962046;28;20092;-52
2023/03/05 02:49:04;;;;;;;58.53;23.88;;;5.20;56.10;;;0.17;87.32;95616.75;4984650;28;20029;-52
2023/03/05 02:51:30;;;;;;;62.38;24.60;;;5.20;56.20;;;0.17;87.07;95612.31;4977864;28;20034;-48
2023/03/05 02:54:02;;;;;;;58.85;24.25;;;5.20;56.10;;;0.17;86.99;95606.28;4969920;28;20022;-49
2023/03/05 02:56:31;;;;;;;57.47;23.67;;;5.20;56.10;;;0.19;87.47;95596.41;4970208;28;20057;-50
2023/03/05 02:59:00;;;;;;;55.00;23.48;;;5.20;56.10;;;0.22;87.36;95599.44;4967889;28;20030;-53
2023/03/05 03:01:29;;;;;;;62.53;25.48;;;5.30;56.20;;;0.26;86.73;95604.28;4973957;28;20034;-49
2023/03/05 03:03:58;;;;;;;52.95;23.08;;;5.30;56.20;;;0.26;87.13;95604.28;4966958;28;20022;-48
2023/03/05 03:06:23;;;;;;;53.58;23.25;;;5.30;56.20;;;0.25;86.80;95592.16;4958510;28;20054;-49
2023/03/05 03:08:49;;;;;;;59.72;23.95;;;5.30;56.10;;;0.25;86.42;95592.97;4986701;28;20062;-50
2023/03/05 03:11:27;;;;;;;54.50;25.23;;;5.30;56.70;;;0.27;86.49;95590.16;4972279;28;20026;-50
2023/03/05 03:13:53;;;;;;;58.42;25.25;;;5.30;56.10;;;0.30;86.28;95587.13;4972250;28;20105;-54
2023/03/05 03:16:19;;;;;;;59.83;23.63;;;5.30;56.10;;;0.31;86.17;95583.50;4961287;28;20141;-51
2023/03/05 03:18:51;;;;;;;52.65;23.98;;;5.30;56.10;;;0.30;85.87;95579.28;4953094;28;20113;-53
2023/03/05 03:21:22;;;;;;;58.57;25.00;;;5.40;56.10;;;0.31;86.07;95579.06;4965218;28;20046;-50
2023/03/05 03:23:49;;;;;;;55.15;24.02;;;5.40;56.00;;;0.20;85.33;95587.53;4952960;28;20030;-54
2023/03/05 03:26:18;;;;;;;60.75;24.30;;;5.40;56.00;;;0.18;85.69;95579.06;4955921;28;20050;-55
2023/03/05 03:28:44;;;;;;;50.60;23.80;;;5.40;55.90;;;0.25;85.69;95571.19;4972442;28;20022;-50
2023/03/05 03:31:10;;;;;;;48.90;21.92;;;5.50;56.00;;;0.19;85.87;95580.69;4971406;28;20080;-49
2023/03/05 03:33:39;;;;;;;51.28;23.40;;;5.50;56.00;;;0.21;85.53;95576.84;4955246;28;20022;-52
2023/03/05 03:36:06;;;;;;;56.58;24.23;;;5.40;55.90;;;0.18;85.59;95571.19;4975951;28;20052;-54
2023/03/05 03:38:32;;;;;;;53.67;22.20;;;5.40;55.90;;;0.14;85.65;95564.75;4962669;28;20044;-53
2023/03/05 03:40:58;;;;;;;54.33;22.15;;;5.40;55.80;;;0.17;85.48;95567.78;4950825;28;20568;-47
2023/03/05 03:43:27;;;;;;;52.78;22.88;;;5.40;55.80;;;0.23;84.91;95563.56;4963253;28;20029;-51
2023/03/05 03:45:56;;;;;;;49.50;21.00;;;5.40;55.90;;;0.23;85.07;95566.97;4970607;28;20096;-48
2023/03/05 03:48:24;;;;;;;57.58;23.67;;;5.40;55.90;;;0.31;84.81;95559.91;4987885;28;20022;-51
2023/03/05 03:51:05;;;;;;;53.20;22.20;;;5.40;55.90;;;0.33;84.53;95563.16;4954802;28;20125;-50
2023/03/05 03:53:32;;;;;;;50.45;22.13;;;5.40;55.90;;;0.33;84.87;95556.09;4959243;28;20033;-47
2023/03/05 03:55:59;;;;;;;51.05;22.65;;;5.40;55.90;;;0.36;84.58;95555.69;4983896;28;20116;-48
2023/03/05 03:58:31;;;;;;;48.90;21.48;;;5.50;55.90;;;0.33;85.06;95555.28;4959195;28;20033;-48
2023/03/05 04:00:57;;;;;;;48.15;21.00;;;5.50;55.90;;;0.30;85.81;95545.22;4953209;28;20025;-53
2023/03/05 04:03:23;;;;;;;46.25;21.40;;;5.50;55.90;;;0.32;85.76;95548.44;4967020;28;20515;-53
2023/03/05 04:05:48;;;;;;;54.28;23.15;;;5.50;55.90;;;0.33;85.96;95547.44;4977636;28;20489;-54
2023/03/05 04:08:17;;;;;;;57.28;21.95;;;5.50;56.50;;;0.36;85.76;95541.78;4962355;28;20090;-50
2023/03/05 04:10:44;;;;;;;51.17;23.70;;;5.50;55.90;;;0.39;85.94;95538.78;4976760;28;20048;-52
2023/03/05 04:13:09;;;;;;;55.17;23.95;;;5.50;56.00;;;0.38;86.01;95534.53;4967479;28;20058;-56
2023/03/05 04:15:35;;;;;;;47.20;22.02;;;5.50;56.00;;;0.37;86.12;95533.72;4973650;28;20126;-48
2023/03/05 04:18:06;;;;;;;56.17;24.25;;;5.50;56.00;;;0.41;85.83;95534.94;4965772;28;20022;-51
2023/03/05 04:20:32;;;;;;;56.58;23.65;;;5.50;56.00;;;0.42;86.06;95533.94;4964636;28;20435;-55
2023/03/05 04:22:58;;;;;;;54.33;25.25;;;5.50;56.00;;;0.44;86.27;95534.53;4983617;28;20022;-48
2023/03/05 04:25:24;;;;;;;52.42;22.45;;;5.50;56.00;;;0.45;85.79;95530.09;4954157;28;20042;-48
2023/03/05 04:27:50;;;;;;;46.72;21.55;;;5.50;56.00;;;0.42;85.93;95523.44;4983064;28;20356;-51
2023/03/05 04:30:16;;;;;;;54.78;23.33;;;5.60;56.10;;;0.40;85.96;95533.31;4983306;28;20050;-48
2023/03/05 04:32:42;;;;;;;47.55;22.02;;;5.50;56.00;;;0.41;85.64;95526.28;4964613;28;20023;-49
2023/03/05 04:35:09;;;;;;;60.83;23.73;;;5.50;56.00;;;0.35;86.43;95530.50;4981415;28;20026;-54
2023/03/05 04:37:35;;;;;;;60.88;25.75;;;5.60;56.00;;;0.36;86.47;95532.13;4966810;28;20549;-49
2023/03/05 04:40:02;;;;;;;52.38;23.50;;;5.50;56.00;;;0.43;86.07;95529.47;4975604;28;20030;-48
2023/03/05 04:42:34;;;;;;;56.13;23.73;;;5.50;56.00;;;0.44;85.85;95526.69;4939068;28;20022;-48
2023/03/05 04:44:59;;;;;;;48.97;22.77;;;5.60;56.10;;;0.46;85.72;95523.84;4967687;28;20034;-58
2023/03/05 04:47:25;;;;;;;58.35;23.90;;;5.60;56.00;;;0.40;86.04;95528.06;4967696;28;20038;-48
2023/03/05 04:49:51;;;;;;;55.63;23.30;;;5.60;56.00;;;0.40;86.33;95525.44;4965282;28;20018;-48
2023/03/05 04:52:17;;;;;;;56.10;23.58;;;5.60;56.00;;;0.38;86.72;95526.69;4969010;28;20389;-49
2023/03/05 04:54:46;;;;;;;54.40;22.55;;;5.60;56.00;;;0.37;86.74;95530.28;4971023;28;20030;-50
2023/03/05 04:57:12;;;;;;;45.13;21.20;;;5.60;56.00;;;0.38;86.75;95524.88;4976365;28;20068;-48
2023/03/05 04:59:43;;;;;;;51.65;23.08;;;5.60;56.00;;;0.42;86.96;95530.50;4971223;28;20088;-50
2023/03/05 05:02:09;;;;;;;55.75;25.13;;;5.60;56.10;;;0.38;87.16;95524.88;4969056;28;20121;-47
2023/03/05 05:04:43;;;;;;;59.65;24.23;;;5.60;56.00;;;0.39;87.49;95521.22;4947600;28;20117;-52
2023/03/05 05:07:11;;;;;;;55.70;24.58;;;5.50;56.10;;;0.36;87.50;95523.44;4960700;28;20104;-48
2023/03/05 05:09:40;;;;;;;62.08;24.90;;;5.50;56.10;;;0.36;87.53;95515.59;4972246;28;20022;-51
2023/03/05 05:12:07;;;;;;;55.70;23.95;;;5.50;56.20;;;0.34;87.60;95510.53;4964953;28;20464;-50
2023/03/05 05:14:34;;;;;;;52.72;23.55;;;5.50;56.20;;;0.35;87.19;95513.97;4965329;28;20022;-54
2023/03/05 05:17:04;;;;;;;57.17;24.73;;;5.50;56.20;;;0.38;87.41;95510.97;4974022;28;20034;-52
2023/03/05 05:19:34;;;;;;;52.95;23.95;;;5.50;56.30;;;0.39;87.26;95502.88;4980072;28;20018;-51
2023/03/05 05:22:03;;;;;;;50.33;22.23;;;5.50;56.30;;;0.40;86.92;95509.72;4958031;28;20029;-53
2023/03/05 05:24:32;;;;;;;54.78;23.77;;;5.50;56.30;;;0.39;87.04;95505.50;4966863;28;20101;-49
2023/03/05 05:27:01;;;;;;;56.15;24.98;;;5.50;56.30;;;0.38;87.20;95498.66;4958271;28;20033;-49
2023/03/05 05:29:27;;;;;;;59.42;25.13;;;5.50;56.30;;;0.38;87.48;95505.72;4951838;28;20026;-53
2023/03/05 05:31:56;;;;;;;58.20;23.90;;;5.50;56.30;;;0.37;87.37;95499.66;4949640;28;20036;-47
2023/03/05 05:34:27;;;;;;;57.25;24.38;;;5.50;56.30;;;0.36;87.45;95500.66;4960349;28;20024;-54
2023/03/05 05:37:02;;;;;;;61.97;25.83;;;5.50;56.30;;;0.39;87.06;95494.22;4974367;28;20049;-47
2023/03/05 05:39:31;;;;;;;55.15;22.83;;;5.60;56.40;;;0.31;87.64;95500.44;4962694;28;20040;-52
2023/03/05 05:41:56;;;;;;;56.88;23.75;;;5.60;56.30;;;0.31;87.88;95499.66;4958487;28;20026;-53
2023/03/05 05:44:25;;;;;;;63.53;26.05;;;5.50;56.30;;;0.33;87.85;95497.66;4979010;28;20060;-48
2023/03/05 05:46:51;;;;;;;55.67;23.67;;;5.50;56.40;;;0.33;87.92;95495.81;4950006;28;20041;-48
2023/03/05 05:49:17;;;;;;;57.47;25.60;;;5.60;56.40;;;0.33;88.11;95503.69;4984476;28;20026;-48
2023/03/05 05:51:43;;;;;;;56.17;25.17;;;5.60;56.40;;;0.31;88.66;95492.59;4968911;28;20030;-54
2023/03/05 05:54:15;;;;;;;57.15;24.75;;;5.60;56.40;;;0.35;88.26;95491.19;4965474;28;20651;-47
2023/03/05 05:56:41;;;;;;;62.23;24.97;;;5.60;56.50;;;0.35;88.23;95493.03;4967750;28;20083;-55
2023/03/05 05:59:09;;;;;;;56.17;24.27;;;5.60;56.40;;;0.36;88.17;95486.75;4958976;28;20443;-58
2023/03/05 06:01:38;;;;;;;55.17;25.15;;;5.60;56.40;;;0.37;87.80;95489.16;4948414;28;20054;-50
2023/03/05 06:04:04;;;;;;;55.95;24.00;;;5.60;56.40;;;0.38;87.83;95490.78;4953111;28;20089;-47
2023/03/05 06:06:33;;;;;;;56.22;24.35;;;5.60;56.40;;;0.38;87.66;95487.38;4966347;28;20038;-56
2023/03/05 06:09:03;;;;;;;61.20;25.08;;;5.60;56.50;;;0.35;87.99;95485.16;4948720;28;20073;-51
2023/03/05 06:11:29;;;;;;;50.90;23.10;;;5.60;56.50;;;0.34;88.24;95494.81;4948058;28;20030;-49
2023/03/05 06:14:02;;;;;;;60.33;25.27;;;5.60;56.40;;;0.37;88.11;95496.22;4962823;28;20109;-48
2023/03/05 06:16:29;;;;;;;60.53;24.95;;;5.60;56.50;;;0.37;88.07;95486.53;4969543;28;20038;-48
2023/03/05 06:18:55;;;;;;;54.55;23.55;;;5.60;56.40;;;0.38;88.15;95495.25;4968355;28;20477;-49
2023/03/05 06:21:22;;;;;;;54.75;24.13;;;5.70;56.60;;;0.37;88.33;95490.97;4952966;28;20134;-53
2023/03/05 06:23:52;;;;;;;60.42;25.17;;;5.60;56.50;;;0.40;88.16;95488.75;4968822;28;20109;-53
2023/03/05 06:26:21;;;;;;;59.40;24.30;;;5.70;57.20;;;0.42;87.99;95493.81;4952564;28;20049;-47
2023/03/05 06:28:48;;;;;;;63.50;25.60;;;5.70;56.50;;;0.43;88.33;95484.94;4948685;29;20625;-47
2023/03/05 06:31:40;;;;;;;57.80;23.85;;;5.70;56.50;;;0.45;88.28;95486.34;4971341;28;20026;-47
2023/03/05 06:34:06;;;;;;;64.18;25.80;;;5.80;56.60;;;0.48;88.38;95484.34;4966359;28;20370;-47
2023/03/05 06:36:39;;;;;;;56.97;25.02;;;5.80;56.60;;;0.51;88.13;95482.13;4967372;28;20037;-48
2023/03/05 06:39:05;;;;;;;;;;;5.80;56.50;;;0.53;88.33;95481.91;4939819;28;20053;-53
2023/03/05 06:41:37;;;;;;;59.92;25.05;;;5.80;56.40;;;0.52;87.96;95483.72;4958541;28;19948;-48
2023/03/05 06:44:03;;;;;;;60.65;25.95;;;5.80;56.40;;;0.54;88.28;95483.53;4967121;28;20064;-54
2023/03/05 06:46:38;;;;;;;60.00;24.67;;;5.80;56.40;;;0.57;88.17;95489.16;4964533;28;20022;-55
2023/03/05 06:49:07;;;;;;;55.08;23.38;;;5.90;56.50;;;0.61;87.54;95476.44;4972297;28;20511;-50
2023/03/05 06:51:38;;;;;;;57.95;25.30;;;5.90;56.40;;;0.62;87.41;95478.84;4987649;28;20058;-56
2023/03/05 06:54:16;;;;;;;66.03;26.30;;;6.00;56.40;;;0.63;87.54;95477.84;4952762;28;20113;-47
2023/03/05 06:56:45;;;;;;;50.45;23.20;;;6.10;56.40;;;0.66;87.58;95481.91;4951262;28;20034;-50
2023/03/05 06:59:41;;;;;;;62.10;26.92;;;6.10;56.30;;;0.72;87.46;95480.25;4964246;28;20088;-53
2023/03/05 07:02:13;;;;;;;62.33;25.77;;;6.10;56.20;;;0.77;87.07;95480.44;4954868;28;20058;-53
2023/03/05 07:04:39;;;;;;;55.33;24.40;;;6.20;56.30;;;0.80;86.58;95480.03;4970657;28;20029;-48
2023/03/05 07:07:06;;;;;;;58.50;25.35;;;6.30;56.20;;;0.83;86.60;95479.63;4971733;28;20626;-51
2023/03/05 07:09:32;;;;;;;55.50;24.85;;;6.40;56.20;;;0.83;85.98;95480.44;4958767;28;20034;-53
2023/03/05 07:12:10;;;;;;;60.15;26.08;;;6.40;56.10;;;0.86;85.58;95485.25;4988430;28;20026;-50
2023/03/05 07:14:37;;;;;;;52.33;23.65;;;6.50;56.00;;;0.92;85.37;95481.81;4971688;28;20142;-48
2023/03/05 07:17:14;;;;;;;59.08;25.60;;;6.50;55.90;;;1.03;85.22;95487.44;4978520;28;20039;-48
2023/03/05 07:19:40;;;;;;;54.03;24.08;;;6.60;55.80;;;1.09;85.37;95482.16;4969731;28;20075;-58
2023/03/05 07:22:10;;;;;;;64.97;27.63;;;6.70;55.80;;;1.14;84.64;95487.59;4968363;28;20034;-47
2023/03/05 07:24:39;;;;;;;65.47;27.70;;;6.70;55.70;;;1.21;85.01;95484.13;4941282;28;20066;-47
2023/03/05 07:27:05;;;;;;;58.38;26.50;;;6.80;55.70;;;1.24;84.65;95481.91;4971487;28;20062;-56
2023/03/05 07:29:31;;;;;;;55.90;24.95;;;6.90;55.60;;;1.31;84.73;95482.66;4964969;28;20477;-52
2023/03/05 07:31:56;;;;;;;56.65;26.52;;;6.90;55.60;;;1.41;84.39;95477.00;4971099;28;20037;-48
2023/03/05 07:34:23;;;;;;;49.42;22.98;;;7.00;55.60;;;1.43;84.38;95474.94;4962559;28;20344;-49
2023/03/05 07:36:51;;;;;;;48.80;24.42;;;7.00;55.50;;;1.43;83.61;95474.94;4970071;28;20037;-48
2023/03/05 07:39:19;;;;;;;49.22;22.67;;;7.10;55.40;;;1.48;83.25;95476.97;4971062;28;20109;-52
2023/03/05 07:41:48;;;;;;;53.45;24.85;;;7.10;55.30;;;1.49;83.51;95475.94;4971756;28;20022;-52
2023/03/05 07:44:16;;;;;;;59.47;27.67;;;7.20;55.30;;;1.59;83.78;95477.09;4964428;28;20030;-50
2023/03/05 07:46:43;;;;;;;59.13;26.40;;;7.30;55.20;;;1.66;82.67;95477.06;4961676;28;20539;-51
2023/03/05 07:49:09;;;;;;;55.30;24.73;;;7.40;55.30;;;1.68;83.23;95474.22;4953272;28;20061;-53
2023/03/05 07:51:35;;;;;;;52.22;24.25;;;7.40;55.10;;;1.73;83.05;95464.69;4963005;28;20030;-48
2023/03/05 07:54:02;;;;;;;53.83;25.35;;;7.50;55.10;;;1.81;82.82;95461.00;4959300;28;20033;-49
2023/03/05 07:56:36;;;;;;;58.28;26.58;;;7.60;55.00;;;1.90;81.91;95462.34;4959735;28;20036;-50
2023/03/05 07:59:10;;;;;;;58.42;25.92;;;7.70;55.00;;;1.97;81.81;95467.56;4954627;28;20029;-55
2023/03/05 08:01:36;;;;;;;53.90;24.52;;;7.70;54.80;;;2.06;81.12;95461.03;4968239;28;20485;-53
2023/03/05 08:04:06;;;;;;;51.95;24.65;;;7.90;54.80;;;2.16;80.20;95466.59;4969471;28;20045;-53
2023/03/05 08:06:32;;;;;;;50.90;24.58;;;8.00;54.70;;;2.25;80.48;95454.78;4968965;28;20022;-53
2023/03/05 08:08:59;;;;;;;52.08;25.02;;;8.00;54.60;;;2.30;79.82;95449.72;4990114;28;20350;-50
2023/03/05 08:11:27;;;;;;;54.17;25.35;;;8.20;54.50;;;2.34;78.53;95457.97;4954737;28;20029;-51
2023/03/05 08:13:53;;;;;;;52.40;25.27;;;8.30;54.30;;;2.42;79.24;95447.19;4966143;28;20034;-48
2023/03/05 08:16:21;;;;;;;60.38;27.33;;;8.40;54.20;;;2.53;78.71;95451.72;4961111;28;20057;-48
2023/03/05 08:18:48;;;;;;;56.15;25.50;;;8.50;54.00;;;2.58;78.35;95456.34;4968681;28;20037;-51
2023/03/05 08:21:28;;;;;;;52.50;24.63;;;8.60;53.90;;;2.39;77.73;95452.06;4969913;28;20034;-50
2023/03/05 08:23:59;;;;;;;52.60;26.25;;;8.70;53.60;;;2.63;77.81;95451.22;4960708;28;20065;-49
2023/03/05 08:26:30;;;;;;;58.30;25.95;;;8.80;53.50;;;2.73;77.29;95440.22;4966869;28;20046;-48
2023/03/05 08:29:04;;;;;;;54.88;26.08;;;8.90;53.50;;;2.81;76.85;95442.53;4966668;28;20033;-48
2023/03/05 08:31:36;;;;;;;50.78;25.75;;;9.10;53.30;;;2.96;76.31;95437.72;4965447;28;20042;-48
2023/03/05 08:34:04;;;;;;;43.90;19.37;;;9.20;53.20;;;3.08;76.54;95450.16;4951201;28;20130;-48
2023/03/05 08:36:38;;;;;;;53.45;26.27;;;9.40;53.80;;;3.23;75.57;95445.31;4957708;28;20080;-53
2023/03/05 08:39:05;;;;;;;52.38;24.20;;;9.60;52.90;;;3.39;74.21;95444.69;4982810;28;20030;-48
2023/03/05 08:41:32;;;;;;;50.88;25.85;;;9.70;52.70;;;3.42;73.69;95444.25;4934671;28;20080;-49
2023/03/05 08:44:04;;;;;;;55.50;27.85;;;9.90;52.50;;;3.62;74.39;95435.28;4963779;28;20035;-52
2023/03/05 08:46:38;;;;;;;49.33;25.63;;;10.00;52.40;;;3.82;73.09;95443.69;4973835;28;20026;-50
2023/03/05 08:49:06;;;;;;;51.97;25.98;;;10.10;52.10;;;3.95;72.00;95437.44;4950894;28;20045;-52
2023/03/05 08:51:34;;;;;;;50.60;25.25;;;10.30;52.00;;;3.91;70.98;95434.41;4961228;28;20388;-53
2023/03/05 08:54:10;;;;;;;57.95;28.50;;;10.40;51.70;;;4.04;71.29;95435.25;4953797;28;20057;-52
2023/03/05 08:56:38;;;;;;;54.80;26.98;;;10.60;51.50;;;4.20;70.93;95429.34;4980714;28;20058;-48
2023/03/05 08:59:05;;;;;;;54.55;26.48;;;10.60;51.20;;;4.31;70.34;95430.34;4970226;28;20144;-50
2023/03/05 09:01:34;;;;;;;50.90;26.83;;;10.80;51.10;;;4.38;69.55;95431.84;4984993;28;20505;-53
2023/03/05 09:04:03;;;;;;;56.63;26.35;;;10.90;50.80;;;4.50;69.41;95429.22;4966029;28;20034;-49
2023/03/05 09:06:33;;;;;;;54.30;26.90;;;11.20;50.70;;;4.69;68.54;95423.81;4962733;28;20171;-51
2023/03/05 09:09:02;;;;;;;55.70;27.73;;;11.40;50.40;;;4.55;67.84;95426.69;4973908;28;21332;-51
2023/03/05 09:11:36;;;;;;;48.72;26.38;;;11.60;50.10;;;4.80;67.61;95418.53;4957377;28;20026;-49
2023/03/05 09:14:06;;;;;;;53.25;26.38;;;11.80;49.90;;;4.97;67.45;95417.81;4954090;28;20492;-53
2023/03/05 09:16:40;;;;;;;50.90;26.95;;;11.90;49.70;;;5.12;66.97;95420.75;4952475;28;20033;-53
2023/03/05 09:19:13;;;;;;;53.25;26.30;;;12.00;49.50;;;4.54;68.71;95409.25;4957255;28;20037;-48
2023/03/05 09:21:40;;;;;;;51.20;26.83;;;12.10;49.20;;;4.71;68.48;95413.84;4953746;28;20037;-49
2023/03/05 09:24:10;;;;;;;54.83;27.38;;;12.20;49.00;;;5.03;67.84;95415.03;4950382;28;20468;-51
2023/03/05 09:26:37;;;;;;;50.92;26.75;;;12.40;48.70;;;5.34;66.01;95411.16;4947067;28;20042;-49
2023/03/05 09:29:05;;;;;;;53.35;27.48;;;12.60;48.60;;;5.57;66.11;95412.88;4961761;28;20049;-54
2023/03/05 09:31:43;;;;;;;49.75;27.05;;;12.90;48.40;;;5.88;64.41;95408.13;4960122;28;20045;-49
2023/03/05 09:34:11;;;;;;;50.95;27.75;;;13.10;48.20;;;6.16;63.25;95402.00;4977072;28;20015;-51
2023/03/05 09:36:37;;;;;;;53.38;28.98;;;13.30;48.00;;;6.39;63.21;95408.16;4946097;28;20026;-52
2023/03/05 09:39:05;;;;;;;49.28;26.92;;;13.50;47.80;;;6.39;61.36;95400.22;4965747;28;20026;-53
2023/03/05 09:42:47;;;;;;;54.33;28.90;;;13.70;47.40;;;6.53;62.12;95398.88;4958583;28;20122;-49
2023/03/05 09:45:25;;;;;;;51.65;28.02;;;14.00;46.90;;;6.33;62.23;95391.44;4949836;28;20553;-51
2023/03/05 09:49:05;;;;;;;51.22;27.70;;;14.30;46.50;;;6.38;61.30;95399.44;4954354;28;20038;-52
2023/03/05 09:51:40;;;;;;;47.13;26.67;;;14.60;45.90;;;6.94;61.08;95388.81;4918968;28;20510;-54
2023/03/05 09:54:36;;;;;;;53.53;29.58;;;14.90;45.70;;;7.49;59.26;95387.88;4968156;28;20026;-51
2023/03/05 09:57:17;;;;;;;52.97;29.00;;;15.30;45.10;;;7.99;57.30;95392.06;4954946;28;20022;-50
2023/03/05 10:00:00;;;;;;;51.15;28.55;;;15.80;44.70;;;8.47;56.19;95389.50;4959184;28;20030;-54
2023/03/05 10:02:42;;;;;;;52.92;28.60;;;16.40;44.20;;;8.62;54.61;95375.50;4932372;28;20030;-49
2023/03/05 10:05:19;;;;;;;49.55;30.25;;;16.90;43.40;;;9.10;54.18;95379.75;4946643;28;20026;-52
2023/03/05 10:08:00;;;;;;;53.83;31.33;;;17.30;43.10;;;9.22;52.20;95383.00;4968179;28;20030;-49
2023/03/05 10:10:39;;;;;;;49.83;29.23;;;17.70;42.10;;;9.37;53.02;95378.78;4951882;28;20034;-52
2023/03/05 10:13:44;;;;;;;50.13;30.25;;;17.90;41.70;;;9.64;53.14;95368.75;4983498;28;20062;-52
2023/03/05 10:16:37;;;;;;;48.13;28.05;;;17.90;41.30;;;9.53;51.14;95368.97;4960621;28;20058;-52
2023/03/05 10:19:44;;;;;;;;;;;17.90;41.10;;;9.40;52.31;95364.94;4948504;28;20108;-55
2023/03/05 10:22:37;;;;;;;50.60;28.63;;;17.70;41.80;;;9.09;52.47;95358.75;4954702;28;19921;-50
2023/03/05 10:25:25;;;;;;;;;;;17.50;40.90;;;9.36;52.59;95358.56;4968496;28;20030;-52
2023/03/05 10:28:04;;;;;;;47.53;27.30;;;17.50;41.70;;;9.69;51.84;95359.97;4964805;28;20296;-55
2023/03/05 10:31:23;;;;;;;48.80;27.98;;;17.80;41.10;;;9.80;50.59;95347.47;4961969;28;20135;-50
2023/03/05 10:34:53;;;;;;;47.63;26.75;;;18.10;40.40;;;10.02;49.25;95345.34;4962347;28;20508;-50
2023/03/05 10:38:04;;;;;;;43.92;26.92;;;18.40;39.90;;;10.06;50.04;95340.28;4947682;28;20043;-50